Latest Weather Observations for Gingin Airport

IDW60801

Issued at 6:02 pm WST Tuesday 9 February 2016 (issued every 30 minutes, with the page automatically refreshed every 10 minutes)

About weather observations | Map of weather stations | Latest weather observations for WA | Other Formats
Station Details ID: 009178 Name: GINGIN AERO Lat: -31.46 Lon: 115.86 Height: 73.0 m
Data from the previous 72 hours. | See also: Recent months at Gingin Airport
Date/Time
WST
Temp
°C
App
Temp
°C
Dew
Point
Rel
Hum
%
Delta-T
°C
Wind Press
QNH
hPa
Press
MSL
hPa
Rain
since 9 am
mm
Dir
 
Spd
km/h
Gust
km/h
Spd
kts
Gust
kts
09/06:00pm 37.6 32.4 3.4 12 18.2 WSW 20 26 11 14 1012.3 1011.9 0.0
09/05:30pm 38.5 32.4 2.8 11 18.9 SW 24 30 13 16 1012.2 1011.8 0.0
09/05:00pm 39.5 33.3 2.2 10 19.6 WSW 24 33 13 18 1012.2 1011.8 0.0
09/04:30pm 39.8 32.9 2.5 10 19.8 SW 28 35 15 19 1012.1 1011.7 0.0
09/04:00pm 40.0 32.4 2.6 10 19.9 WSW 32 41 17 22 1012.1 1011.7 0.0
09/03:30pm 40.6 33.0 3.1 10 20.1 WSW 32 39 17 21 1012.4 1012.0 0.0
09/03:00pm 41.0 33.9 3.4 10 20.3 WSW 30 39 16 21 1012.4 1012.0 0.0
09/02:30pm 42.1 36.4 2.7 9 21.2 SW 22 30 12 16 1012.5 1012.1 0.0
09/02:00pm 42.0 35.5 2.6 9 21.1 WSW 26 35 14 19 1012.6 1012.2 0.0
09/01:30pm 42.9 36.5 3.3 9 21.6 SW 26 37 14 20 1012.7 1012.3 0.0
09/01:00pm 43.1 37.8 1.8 8 22.0 NW 19 30 10 16 1013.0 1012.6 0.0
09/12:30pm 41.8 37.5 0.8 8 21.4 N 13 24 7 13 1013.2 1012.8 0.0
09/12:00pm 42.1 38.2 1.1 8 21.5 NW 11 24 6 13 1013.6 1013.3 0.0
09/11:30am 41.6 37.1 2.3 9 21.0 NNW 15 22 8 12 1013.9 1013.6 0.0
09/11:00am 40.6 35.3 1.6 9 20.5 N 19 30 10 16 1014.3 1014.0 0.0
09/10:30am 39.7 35.6 2.4 10 19.7 N 13 24 7 13 1014.7 1014.4 0.0
09/10:00am 38.3 35.3 3.9 12 18.5 NNE 9 20 5 11 1014.9 1014.6 0.0
09/09:30am 37.1 32.6 4.1 13 17.7 N 17 22 9 12 1015.0 1014.7 0.0
09/09:00am 35.9 30.1 4.2 14 16.9 NNE 24 32 13 17 1015.2 1014.9 0.0
09/08:30am 34.6 28.0 4.2 15 16.1 NNE 28 35 15 19 1015.1 1014.8 0.0
09/08:28am 34.8 28.2 4.4 15 16.1 NNE 28 35 15 19 1015.2 1014.9 0.0
09/08:00am 33.0 29.7 4.7 17 14.9 NNW 11 17 6 9 1015.2 1014.9 0.0
09/07:30am 32.2 28.2 4.9 18 14.4 NNE 15 24 8 13 1014.8 1014.5 0.0
09/07:00am 30.3 25.9 4.9 20 13.2 NNE 17 24 9 13 1014.6 1014.3 0.0
09/06:55am 29.0 25.7 6.4 24 12.0 NE 13 17 7 9 1014.5 1014.2 0.0
09/06:30am 23.8 20.4 4.2 28 9.7 ENE 11 17 6 9 1014.3 1014.0 0.0
09/06:00am 21.4 18.9 4.0 32 8.4 ENE 6 9 3 5 1013.8 1013.5 0.0
09/05:30am 25.8 22.6 3.1 23 11.2 ENE 9 13 5 7 1013.3 1012.9 0.0
09/05:00am 24.9 20.6 3.0 24 10.7 ENE 15 17 8 9 1013.0 1012.6 0.0
09/04:30am 24.4 20.0 2.5 24 10.5 E 15 17 8 9 1012.7 1012.3 0.0
09/04:00am 22.6 18.9 4.2 30 9.0 ESE 13 13 7 7 1012.8 1012.4 0.0
09/03:30am 21.1 18.4 5.5 36 7.8 SE 9 11 5 6 1012.7 1012.3 0.0
09/03:00am 20.8 18.9 7.4 42 6.9 NE 7 9 4 5 1012.9 1012.5 0.0
09/02:30am 20.7 18.8 7.7 43 6.7 NE 7 9 4 5 1012.9 1012.5 0.0
09/02:00am 20.3 18.6 7.7 44 6.5 NE 6 7 3 4 1013.1 1012.7 0.0
09/01:30am 21.1 19.9 8.0 43 6.8 NE 4 7 2 4 1013.3 1012.9 0.0
09/01:00am 21.9 21.0 7.7 40 7.4 NE 2 7 1 4 1013.5 1013.2 0.0
09/12:30am 22.0 20.3 8.2 41 7.3 NE 7 9 4 5 1013.6 1013.3 0.0
09/12:00am 23.6 22.3 7.7 36 8.4 E 4 9 2 5 1014.0 1013.7 0.0
 
Date/Time
WST
Temp
°C
App
Temp
°C
Dew
Point
Rel
Hum
%
Delta-T
°C
Wind Press
QNH
hPa
Press
MSL
hPa
Rain
since 9 am
mm
Dir
 
Spd
km/h
Gust
km/h
Spd
kts
Gust
kts
08/11:30pm 24.1 22.4 7.7 35 8.7 E 6 7 3 4 1014.4 1014.1 0.0
08/11:00pm 25.0 23.1 7.6 33 9.2 E 7 11 4 6 1014.5 1014.2 0.0
08/10:30pm 26.4 24.4 6.9 29 10.3 SE 7 11 4 6 1014.5 1014.2 0.0
08/10:00pm 29.2 26.1 7.2 25 11.9 S 13 15 7 8 1014.5 1014.2 0.0
08/09:30pm 29.5 27.1 6.8 24 12.2 S 9 11 5 6 1014.4 1014.1 0.0
08/09:00pm 31.0 28.0 6.1 21 13.3 S 11 13 6 7 1014.2 1013.9 0.0
08/08:30pm 32.6 29.2 6.0 19 14.3 SSW 13 15 7 8 1013.8 1013.5 0.0
08/08:00pm 33.8 30.8 6.2 18 15.0 S 11 15 6 8 1013.4 1013.0 0.0
08/07:30pm 35.6 31.6 5.0 15 16.5 S 15 20 8 11 1013.1 1012.7 0.0
08/07:00pm 37.4 31.9 2.0 11 18.4 SSW 20 26 11 14 1012.6 1012.2 0.0
08/06:30pm 38.8 32.3 0.3 9 19.6 SSW 24 32 13 17 1012.2 1011.8 0.0
08/06:00pm 40.0 32.9 1.1 9 20.2 SW 28 37 15 20 1011.8 1011.4 0.0
08/05:30pm 41.1 35.8 2.0 9 20.7 SSW 19 26 10 14 1011.6 1011.2 0.0
08/05:00pm 41.7 38.4 2.4 9 21.0 SW 9 24 5 13 1011.6 1011.2 0.0
08/04:30pm 41.6 37.6 0.7 8 21.3 WSW 11 20 6 11 1011.7 1011.3 0.0
08/04:00pm 41.5 36.0 0.6 8 21.3 NNE 19 28 10 15 1012.1 1011.7 0.0
08/03:30pm 41.4 37.0 0.5 8 21.2 NNE 13 20 7 11 1012.2 1011.8 0.0
08/03:00pm 41.8 37.1 0.8 8 21.4 N 15 28 8 15 1012.6 1012.2 0.0
08/02:30pm 42.3 38.8 1.2 8 21.6 NNE 9 19 5 10 1012.9 1012.5 0.0
08/02:00pm 41.9 38.0 0.9 8 21.4 NNE 11 20 6 11 1013.3 1012.9 0.0
08/01:30pm 41.1 37.3 2.0 9 20.7 NE 11 20 6 11 1013.8 1013.5 0.0
08/01:00pm 40.8 36.2 1.7 9 20.6 ESE 15 26 8 14 1014.0 1013.7 0.0
08/12:30pm 40.2 34.9 2.8 10 19.9 NE 20 35 11 19 1014.4 1014.1 0.0
08/12:00pm 40.8 34.4 3.2 10 20.2 ENE 26 48 14 26 1014.6 1014.3 0.0
08/11:30am 39.4 33.1 3.5 11 19.3 NNE 26 39 14 21 1015.2 1014.9 0.0
08/11:00am 38.3 32.8 3.9 12 18.4 NNE 22 30 12 16 1015.6 1015.3 0.0
08/10:30am 38.0 32.3 4.8 13 18.0 NNE 24 33 13 18 1015.8 1015.5 0.0
08/10:00am 36.6 29.9 3.7 13 17.4 NE 28 37 15 20 1015.9 1015.6 0.0
08/09:30am 35.8 28.4 4.2 14 16.8 NNE 32 43 17 23 1016.1 1015.8 0.0
08/09:00am 34.7 27.4 4.3 15 16.1 NE 32 46 17 25 1015.9 1015.6 0.0
08/08:30am 33.7 26.0 3.5 15 15.7 NE 33 44 18 24 1015.8 1015.5 0.0
08/08:00am 32.4 26.4 3.4 16 14.9 NE 24 35 13 19 1015.8 1015.5 0.0
08/07:30am 30.8 25.5 3.0 17 14.1 NE 20 32 11 17 1015.8 1015.5 0.0
08/07:00am 29.8 24.5 2.1 17 13.7 ENE 19 28 10 15 1015.7 1015.4 0.0
08/06:30am 28.3 24.6 2.5 19 12.8 ENE 11 17 6 9 1015.5 1015.2 0.0
08/06:00am 26.6 21.7 1.8 20 12.0 ENE 17 19 9 10 1015.2 1014.9 0.0
08/05:30am 26.4 22.3 2.3 21 11.7 ENE 13 22 7 12 1015.0 1014.7 0.0
08/05:00am 27.4 24.0 3.8 22 11.9 E 11 13 6 7 1014.7 1014.4 0.0
08/04:30am 27.6 23.4 4.0 22 11.9 E 15 19 8 10 1014.3 1014.0 0.0
08/04:00am 26.6 21.7 5.0 25 11.0 ESE 20 24 11 13 1014.1 1013.8 0.0
08/03:30am 22.0 19.0 7.8 40 7.4 ESE 13 17 7 9 1014.0 1013.7 0.0
08/03:00am 21.1 19.6 9.0 46 6.4 SE 7 9 4 5 1014.0 1013.7 0.0
08/02:30am 22.9 20.3 9.3 42 7.3 SE 13 19 7 10 1014.1 1013.8 0.0
08/02:00am 21.5 19.9 10.3 49 6.1 ESE 9 13 5 7 1014.2 1013.9 0.0
08/01:30am 22.6 21.4 10.4 46 6.7 ESE 7 9 4 5 1014.4 1014.1 0.0
08/01:00am 23.5 22.0 10.6 44 7.2 ESE 9 11 5 6 1014.6 1014.3 0.0
08/12:30am 22.5 21.4 10.6 47 6.6 ESE 7 9 4 5 1014.9 1014.6 0.0
08/12:00am 24.3 23.3 10.9 43 7.5 ESE 7 9 4 5 1015.0 1014.7 0.0
 
Date/Time
WST
Temp
°C
App
Temp
°C
Dew
Point
Rel
Hum
%
Delta-T
°C
Wind Press
QNH
hPa
Press
MSL
hPa
Rain
since 9 am
mm
Dir
 
Spd
km/h
Gust
km/h
Spd
kts
Gust
kts
07/11:30pm 23.8 23.3 10.8 44 7.2 ESE 4 7 2 4 1015.1 1014.8 0.0
07/11:00pm 25.3 23.1 10.7 40 8.2 ESE 13 15 7 8 1015.2 1014.9 0.0
07/10:30pm 26.9 24.9 10.2 35 9.4 SSE 11 13 6 7 1015.4 1015.1 0.0
07/10:00pm 27.8 25.1 10.5 34 9.8 SSE 15 17 8 9 1015.7 1015.4 0.0
07/09:30pm 27.6 25.9 11.2 36 9.4 SSE 11 15 6 8 1015.7 1015.4 0.0
07/09:00pm 28.0 26.3 11.1 35 9.7 SSE 11 13 6 7 1015.5 1015.2 0.0
07/08:30pm 28.7 27.5 11.7 35 9.8 S 9 11 5 6 1015.2 1014.9 0.0
07/08:00pm 29.8 28.7 11.8 33 10.5 S 9 13 5 7 1014.8 1014.5 0.0
07/07:30pm 31.3 28.8 11.1 29 11.7 SSW 15 20 8 11 1014.3 1014.0 0.0
07/07:00pm 32.9 28.7 9.7 24 13.3 SSW 22 30 12 16 1014.0 1013.7 0.0
07/06:30pm 34.2 30.3 10.7 24 13.7 SSW 22 30 12 16 1013.5 1013.2 0.0
07/06:00pm 35.2 29.3 8.9 20 15.0 SSW 30 39 16 21 1013.0 1012.6 0.0
07/05:30pm 36.7 31.5 10.1 20 15.6 SW 28 33 15 18 1012.8 1012.4 0.0
07/05:00pm 38.1 35.4 8.8 17 16.9 WSW 13 26 7 14 1012.7 1012.3 0.0
07/04:30pm 39.3 35.2 2.1 10 19.5 E 13 26 7 14 1012.5 1012.1 0.0
07/04:00pm 39.7 34.5 2.4 10 19.7 ENE 19 26 10 14 1012.6 1012.2 0.0
07/03:30pm 39.1 35.2 3.3 11 19.1 ESE 13 24 7 13 1012.8 1012.4 0.0
07/03:00pm 39.3 35.4 3.4 11 19.2 E 13 24 7 13 1013.2 1012.8 0.0
07/02:30pm 38.9 34.8 4.4 12 18.7 E 15 20 8 11 1013.4 1013.0 0.0
07/02:00pm 39.5 35.3 3.6 11 19.3 ESE 15 26 8 14 1013.6 1013.3 0.0
07/01:30pm 37.9 33.5 4.7 13 18.0 NE 17 28 9 15 1014.1 1013.8 0.0
07/01:00pm 39.0 35.0 6.7 14 18.1 ENE 17 28 9 15 1014.3 1014.0 0.0
07/12:30pm 38.3 34.3 8.1 16 17.3 ENE 19 32 10 17 1014.6 1014.3 0.0
07/12:00pm 37.0 33.1 8.8 18 16.2 NE 19 33 10 18 1014.9 1014.6 0.0
07/11:30am 35.8 31.7 8.6 19 15.5 NE 20 30 11 16 1015.2 1014.9 0.0
07/11:00am 35.1 31.4 10.2 22 14.5 NE 20 30 11 16 1015.6 1015.3 0.0
07/10:30am 33.2 29.4 11.1 26 12.9 NE 22 33 12 18 1015.8 1015.5 0.0
07/10:00am 32.6 29.3 11.7 28 12.3 E 20 30 11 16 1016.0 1015.7 0.0
07/09:30am 29.6 27.2 13.8 38 9.5 E 19 26 10 14 1016.1 1015.8 0.0
07/09:00am 28.4 25.2 14.3 42 8.5 E 24 32 13 17 1016.2 1015.9 0.0
07/08:30am 26.6 24.2 14.4 47 7.3 E 20 26 11 14 1016.2 1015.9 0.0
07/08:00am 24.9 22.5 14.4 52 6.2 E 20 28 11 15 1016.1 1015.8 0.0
07/07:30am 23.3 21.2 14.6 58 5.2 ESE 19 26 10 14 1016.1 1015.8 0.0
07/07:00am 22.2 19.9 14.6 62 4.5 ESE 20 30 11 16 1015.9 1015.6 0.0
07/06:30am 21.3 19.1 14.5 65 4.0 E 19 28 10 15 1015.7 1015.4 0.0
07/06:00am 20.6 18.8 14.5 68 3.6 E 17 26 9 14 1015.5 1015.2 0.0
07/05:30am 20.5 18.3 14.4 68 3.6 E 19 24 10 13 1015.2 1014.9 0.0
07/05:00am 21.0 17.9 14.6 67 3.8 E 24 32 13 17 1014.7 1014.4 0.0
07/04:30am 21.3 17.5 14.7 66 3.9 E 28 33 15 18 1014.4 1014.1 0.0
07/04:00am 21.8 19.2 14.9 65 4.1 ESE 22 28 12 15 1014.4 1014.1 0.0
07/03:30am 22.3 18.3 15.2 64 4.2 E 30 39 16 21 1014.2 1013.9 0.0
07/03:00am 22.3 19.4 15.2 64 4.2 E 24 32 13 17 1014.0 1013.7 0.0
07/02:30am 22.7 20.0 15.5 64 4.3 ESE 24 30 13 16 1014.1 1013.8 0.0
07/02:00am 21.0 19.8 16.0 73 3.0 ESE 17 20 9 11 1014.3 1014.0 0.0
07/01:30am 18.4 19.5 17.2 93 0.7 ESE 7 9 4 5 1014.4 1014.1 0.0
07/01:00am 18.1 18.9 16.4 90 1.0 ESE 7 7 4 4 1014.6 1014.3 0.0
07/12:30am 18.9 19.9 16.3 85 1.6 ESE 6 7 3 4 1014.8 1014.5 0.0
07/12:00am 19.4 20.9 17.5 89 1.2 ESE 6 9 3 5 1014.8 1014.5 0.0
 
Date/Time
WST
Temp
°C
App
Temp
°C
Dew
Point
Rel
Hum
%
Delta-T
°C
Wind Press
QNH
hPa
Press
MSL
hPa
Rain
since 9 am
mm
Dir
 
Spd
km/h
Gust
km/h
Spd
kts
Gust
kts
06/11:30pm 19.4 20.7 17.0 86 1.5 ESE 6 7 3 4 1015.0 1014.7 0.0
06/11:00pm 21.1 22.9 18.3 84 1.7 SSW 6 9 3 5 1015.0 1014.7 0.0
06/10:30pm 21.1 22.6 18.1 83 1.9 SW 7 9 4 5 1015.1 1014.8 0.0
06/10:00pm 21.7 23.2 18.1 80 2.2 SSW 7 9 4 5 1015.2 1014.9 0.0
06/09:30pm 22.4 23.1 18.0 76 2.7 SSW 11 17 6 9 1015.1 1014.8 0.0
06/09:00pm 22.8 22.6 17.7 73 3.2 SSW 15 19 8 10 1015.0 1014.7 0.0
06/08:30pm 23.4 23.1 17.4 69 3.7 SSW 15 19 8 10 1014.7 1014.4 0.0
06/08:00pm 23.9 23.0 16.9 65 4.3 SSW 17 22 9 12 1014.6 1014.3 0.0
06/07:30pm 24.9 23.5 16.9 61 5.0 SSW 20 26 11 14 1014.4 1014.1 0.0
06/07:00pm 26.2 24.7 16.7 56 5.9 SSW 20 24 11 13 1014.0 1013.7 0.0
06/06:30pm 27.8 25.7 16.1 49 7.2 SSW 22 28 12 15 1013.6 1013.3 0.0

Other Formats:

Comma delimited format used in spreadsheet applications
http://www.bom.gov.au/fwo/IDW60801/IDW60801.95612.axf

JavaScript Object Notation format (JSON) in row-major order
http://www.bom.gov.au/fwo/IDW60801/IDW60801.95612.json